Time;durP1;ratioP1;P1;durP2;ratioP2;P2;SDS_P1;SDS_P2;PMS_P1;PMS_P2;Temp;Humidity;BMP_temperature;BMP_pressure;BME280_temperature;BME280_humidity;BME280_pressure;Samples;Min_cycle;Max_cycle;Signal;HPM_P1;HPM_P2
2021/07/30 00:00:19;;;;;;;16.45;7.45;;;;;;;15.76;70.56;101027.75;4848591;29;20551;-77
2021/07/30 00:03:14;;;;;;;18.30;8.32;;;;;;;15.69;71.08;101034.69;4857175;29;20558;-78
2021/07/30 00:06:06;;;;;;;17.58;8.63;;;;;;;15.62;71.13;101030.09;4856204;29;20147;-79
2021/07/30 00:08:57;;;;;;;14.32;8.25;;;;;;;15.55;71.71;101034.44;4856022;29;20113;-77
2021/07/30 00:11:48;;;;;;;16.50;7.57;;;;;;;15.56;72.67;101040.53;4851034;29;20053;-78
2021/07/30 00:14:46;;;;;;;15.70;8.82;;;;;;;15.55;72.21;101028.31;4854087;29;20085;-78
2021/07/30 00:17:38;;;;;;;13.93;8.50;;;;;;;15.47;72.71;101029.19;4860010;29;20062;-78
2021/07/30 00:20:26;;;;;;;16.98;7.97;;;;;;;15.43;71.97;101027.88;4855055;29;20057;-78
2021/07/30 00:23:18;;;;;;;16.38;8.15;;;;;;;15.43;71.56;101026.06;4845455;29;20084;-78
2021/07/30 00:26:09;;;;;;;19.30;8.50;;;;;;;15.34;72.22;101027.09;4852092;29;20053;-78
2021/07/30 00:29:01;;;;;;;17.40;8.90;;;;;;;15.36;72.11;101027.75;4857271;29;20085;-78
2021/07/30 00:31:59;;;;;;;15.63;8.55;;;;;;;15.27;72.09;101028.81;4849589;29;20057;-78
2021/07/30 00:34:50;;;;;;;15.98;8.15;;;;;;;15.19;72.64;101018.25;4849850;29;20092;-78
2021/07/30 00:37:38;;;;;;;14.15;8.02;;;;;;;15.15;72.83;101023.06;4846220;29;20049;-78
2021/07/30 00:40:29;;;;;;;17.30;8.52;;;;;;;15.12;73.22;101026.03;4855414;29;20518;-78
2021/07/30 00:43:21;;;;;;;12.60;7.90;;;;;;;15.10;72.75;101022.75;4848791;29;20774;-78
2021/07/30 00:46:13;;;;;;;12.27;7.88;;;;;;;15.03;73.49;101022.63;4856180;29;20062;-78
2021/07/30 00:49:07;;;;;;;12.68;7.63;;;;;;;15.01;73.89;101015.84;4850674;29;20049;-78
2021/07/30 00:51:59;;;;;;;14.27;9.13;;;;;;;15.00;73.49;101022.94;4856354;29;20057;-78
2021/07/30 00:54:50;;;;;;;16.23;8.38;;;;;;;14.96;73.84;101029.56;4852035;29;20493;-78
2021/07/30 00:57:42;;;;;;;17.58;8.38;;;;;;;14.93;73.38;101018.50;4857722;29;20081;-78
2021/07/30 01:00:34;;;;;;;12.43;8.18;;;;;;;14.86;74.03;101018.38;4845866;29;20111;-78
2021/07/30 01:06:19;;;;;;;15.27;8.00;;;;;;;14.82;74.20;101019.72;4638157;27;20158;-78
2021/07/30 01:09:14;;;;;;;17.55;8.05;;;;;;;14.79;73.73;101026.13;4826198;29;20052;-77
2021/07/30 01:12:02;;;;;;;13.85;7.93;;;;;;;14.76;74.29;101023.84;4859125;24;20058;-77
2021/07/30 01:17:11;;;;;;;19.52;8.93;;;;;;;14.73;74.39;101018.91;4118536;27;20936;-77
2021/07/30 01:19:37;;;;;;;16.23;8.73;;;;;;;14.71;74.24;101022.69;4837701;29;20110;-77
2021/07/30 01:22:29;;;;;;;17.10;8.35;;;;;;;14.67;74.27;101009.00;4832761;29;20068;-77
2021/07/30 01:24:57;;;;;;;18.55;8.65;;;;;;;14.67;74.27;101011.66;4838404;29;20057;-77
2021/07/30 01:28:04;;;;;;;19.73;8.43;;;;;;;14.76;73.90;101012.44;4828558;29;20114;-77
2021/07/30 01:30:44;;;;;;;15.70;8.68;;;;;;;14.71;74.19;101006.88;4832006;29;20050;-77
2021/07/30 01:33:33;;;;;;;15.73;7.75;;;;;;;14.73;73.82;101004.88;4829667;29;20086;-77
2021/07/30 01:36:28;;;;;;;14.25;8.77;;;;;;;14.71;74.17;101010.31;4847685;29;20138;-77
2021/07/30 01:39:20;;;;;;;17.88;8.80;;;;;;;14.69;75.00;101008.84;4831365;29;20054;-77
2021/07/30 01:42:17;;;;;;;16.38;9.20;;;;;;;14.71;74.32;101007.69;4837492;29;20058;-78
2021/07/30 01:45:07;;;;;;;16.23;8.63;;;;;;;14.68;73.77;101007.19;4827132;29;20057;-77
2021/07/30 01:47:55;;;;;;;15.32;8.38;;;;;;;14.69;73.85;101007.03;4836247;29;20122;-76
2021/07/30 01:50:50;;;;;;;;;;;;;;;14.69;73.78;100998.28;4827475;29;20070;-76
2021/07/30 01:53:38;;;;;;;16.23;9.02;;;;;;;14.64;74.27;101004.06;4821278;29;20350;-76
2021/07/30 01:56:32;;;;;;;16.40;8.05;;;;;;;14.65;73.65;101000.44;4828018;29;20061;-78
2021/07/30 01:59:24;;;;;;;13.00;8.32;;;;;;;14.65;73.31;100999.63;4834006;29;20076;-78
2021/07/30 02:02:25;;;;;;;16.75;9.10;;;;;;;14.60;74.30;101005.38;4824576;29;20093;-77
2021/07/30 02:05:08;;;;;;;20.95;8.68;;;;;;;14.50;74.85;101005.53;4836609;29;20050;-78
2021/07/30 02:08:00;;;;;;;17.17;8.38;;;;;;;14.48;74.34;101001.44;4829630;29;20057;-78
2021/07/30 02:10:54;;;;;;;15.18;8.48;;;;;;;14.42;74.71;101001.09;4830045;29;20054;-76
2021/07/30 02:16:40;;;;;;;16.63;8.13;;;;;;;14.26;74.87;100993.19;4837154;29;20066;-76
2021/07/30 02:19:28;;;;;;;13.63;8.52;;;;;;;14.28;74.56;101001.78;4820918;29;20085;-76
2021/07/30 02:22:26;;;;;;;17.83;8.48;;;;;;;14.26;74.93;101003.75;4826509;29;20054;-78
2021/07/30 02:25:11;;;;;;;16.20;8.10;;;;;;;14.28;74.87;100985.13;4830197;29;20061;-78
2021/07/30 02:28:03;;;;;;;22.35;8.90;;;;;;;14.27;75.12;100994.03;4837547;29;20535;-78
2021/07/30 02:30:58;;;;;;;20.63;9.13;;;;;;;14.27;74.96;100988.75;4829315;29;20054;-77
2021/07/30 02:33:47;;;;;;;14.80;8.13;;;;;;;14.29;74.84;100986.75;4843158;29;20061;-77
2021/07/30 02:36:48;;;;;;;15.30;8.43;;;;;;;14.26;75.15;100985.28;4835578;29;20049;-77
2021/07/30 02:39:47;;;;;;;;;;;;;;;14.31;74.94;100982.13;4835152;29;20422;-75
2021/07/30 02:42:46;;;;;;;17.20;8.57;;;;;;;14.32;74.91;100981.16;4836108;29;19960;-78
2021/07/30 02:45:16;;;;;;;16.13;8.30;;;;;;;14.29;74.67;100982.34;4827797;29;20066;-78
2021/07/30 02:48:07;;;;;;;16.90;8.18;;;;;;;14.27;74.78;100978.19;4827627;29;20141;-78
2021/07/30 02:51:02;;;;;;;14.73;8.38;;;;;;;14.30;75.28;100989.25;4842049;29;20394;-77
2021/07/30 02:53:56;;;;;;;16.45;8.35;;;;;;;14.30;75.08;100993.69;4839481;29;20054;-76
2021/07/30 02:56:43;;;;;;;18.02;8.05;;;;;;;14.33;74.71;100991.56;4840875;29;20106;-78
2021/07/30 02:59:50;;;;;;;19.08;7.88;;;;;;;14.37;75.20;100989.41;4826788;29;20061;-76
2021/07/30 03:02:29;;;;;;;14.63;8.07;;;;;;;14.34;75.24;100969.44;4832226;29;20057;-76
2021/07/30 03:05:22;;;;;;;19.65;8.45;;;;;;;14.37;74.89;100971.75;4828412;29;20057;-77
2021/07/30 03:08:13;;;;;;;14.68;8.15;;;;;;;14.43;74.34;100978.19;4839611;29;20923;-77
2021/07/30 03:11:23;;;;;;;17.40;7.63;;;;;;;14.41;73.95;100961.69;4834625;29;20114;-76
2021/07/30 03:13:59;;;;;;;14.90;7.50;;;;;;;14.43;74.16;100957.06;4834879;29;20106;-77
2021/07/30 03:16:57;;;;;;;16.95;8.10;;;;;;;14.38;74.05;100956.75;4831573;29;20058;-77
2021/07/30 03:19:42;;;;;;;15.15;7.45;;;;;;;14.36;74.41;100954.25;4839789;29;20505;-77
2021/07/30 03:22:49;;;;;;;21.77;7.90;;;;;;;14.42;74.07;100952.78;4815123;29;20862;-77
2021/07/30 03:25:28;;;;;;;19.27;7.68;;;;;;;14.39;73.91;100961.03;4822862;29;20055;-77
2021/07/30 03:28:22;;;;;;;17.13;7.55;;;;;;;14.39;73.88;100961.03;4830759;29;20054;-77
2021/07/30 03:31:08;;;;;;;14.80;7.30;;;;;;;14.39;73.86;100950.50;4826521;29;20050;-76
2021/07/30 03:33:59;;;;;;;16.42;7.60;;;;;;;14.38;73.56;100946.19;4830631;29;20530;-77
2021/07/30 03:36:50;;;;;;;14.63;7.95;;;;;;;14.47;73.06;100947.00;4831821;29;20054;-77
2021/07/30 03:39:42;;;;;;;18.98;8.00;;;;;;;14.53;73.46;100941.06;4831581;29;20073;-77
2021/07/30 03:42:37;;;;;;;14.70;7.78;;;;;;;14.44;73.53;100951.63;4832552;29;20568;-77
2021/07/30 03:45:31;;;;;;;13.63;7.40;;;;;;;14.35;74.20;100944.72;4832781;29;20203;-78
2021/07/30 03:48:20;;;;;;;15.50;7.53;;;;;;;14.33;74.51;100941.44;4824199;29;20054;-79
2021/07/30 03:51:14;;;;;;;19.98;7.85;;;;;;;14.41;74.42;100938.75;4833354;29;20390;-77
2021/07/30 03:54:04;;;;;;;14.73;8.15;;;;;;;14.41;75.07;100938.75;4827566;29;20330;-77
2021/07/30 03:56:58;;;;;;;13.52;7.32;;;;;;;14.37;74.92;100940.09;4828481;29;20095;-77
2021/07/30 03:59:52;;;;;;;14.90;7.93;;;;;;;14.34;75.50;100948.34;4827523;29;20097;-77
2021/07/30 04:02:40;;;;;;;14.40;7.95;;;;;;;14.39;74.95;100943.38;4836254;29;20133;-77
2021/07/30 04:05:32;;;;;;;18.27;8.65;;;;;;;14.35;75.31;100941.25;4845904;29;20062;-79
2021/07/30 04:08:26;;;;;;;16.45;8.65;;;;;;;14.34;75.58;100935.13;4829311;29;20816;-77
2021/07/30 04:11:18;;;;;;;18.52;8.32;;;;;;;14.44;75.19;100940.22;4832872;29;20072;-77
2021/07/30 04:14:09;;;;;;;13.60;7.78;;;;;;;14.32;74.92;100944.22;4830363;29;20683;-77
2021/07/30 04:17:06;;;;;;;15.43;7.80;;;;;;;14.31;75.72;100940.78;4829359;29;20065;-77
2021/07/30 04:19:54;;;;;;;14.45;8.18;;;;;;;14.32;76.39;100928.41;4833984;29;20066;-77
2021/07/30 04:22:45;;;;;;;15.00;8.15;;;;;;;14.33;76.01;100932.66;4827559;29;20069;-77
2021/07/30 04:25:41;;;;;;;15.52;8.65;;;;;;;14.43;75.93;100941.25;4845680;29;20113;-77
2021/07/30 04:28:32;;;;;;;20.35;7.55;;;;;;;14.48;76.16;100938.91;4837232;29;20062;-78
2021/07/30 04:31:30;;;;;;;19.23;8.00;;;;;;;14.58;76.63;100939.59;4835060;29;20122;-77
2021/07/30 04:34:15;;;;;;;;;;;;;;;14.66;75.82;100929.97;4833109;29;20050;-77
2021/07/30 04:37:10;;;;;;;17.25;7.70;;;;;;;14.63;75.15;100936.44;4834032;29;20084;-77
2021/07/30 04:39:58;;;;;;;17.48;7.60;;;;;;;14.47;76.58;100934.63;4826210;29;20061;-77
2021/07/30 04:42:56;;;;;;;17.50;7.75;;;;;;;14.48;76.02;100938.91;4832963;29;20207;-77
2021/07/30 04:45:41;;;;;;;;;;;;;;;14.50;76.54;100930.81;4826971;29;20066;-77
2021/07/30 04:48:35;;;;;;;17.38;8.50;;;;;;;14.53;76.02;100939.22;4825585;29;19932;-77
2021/07/30 04:51:27;;;;;;;17.15;8.68;;;;;;;14.77;75.45;100929.59;4827763;29;20073;-77
2021/07/30 04:54:18;;;;;;;13.20;7.63;;;;;;;14.90;74.92;100923.78;4823480;29;20062;-78
2021/07/30 04:57:10;;;;;;;20.13;9.15;;;;;;;14.99;74.15;100920.94;4821426;29;20054;-77
2021/07/30 05:00:05;;;;;;;19.45;9.50;;;;;;;15.14;73.88;100920.19;4828029;29;20089;-77
2021/07/30 05:02:56;;;;;;;16.75;7.90;;;;;;;15.12;73.42;100917.72;4824015;29;20493;-77
2021/07/30 05:05:48;;;;;;;25.15;10.35;;;;;;;15.28;73.67;100913.34;4831992;29;20053;-77
2021/07/30 05:08:37;;;;;;;25.27;10.00;;;;;;;15.33;73.54;100909.19;4828953;29;20057;-77
2021/07/30 05:11:32;;;;;;;21.70;9.90;;;;;;;15.42;73.49;100918.66;4831963;29;20050;-78
2021/07/30 05:14:25;;;;;;;20.17;8.77;;;;;;;15.51;72.61;100916.00;4822008;29;20062;-77
2021/07/30 05:17:17;;;;;;;18.25;9.30;;;;;;;15.52;73.77;100915.78;4819151;29;20122;-77
2021/07/30 05:20:09;;;;;;;19.98;9.68;;;;;;;15.56;73.44;100914.47;4833089;29;20113;-78
2021/07/30 05:22:58;;;;;;;28.85;11.07;;;;;;;15.58;72.97;100914.28;4836120;29;20054;-77
2021/07/30 05:25:55;;;;;;;23.95;10.48;;;;;;;15.56;72.90;100906.53;4834457;29;20154;-77
2021/07/30 05:28:43;;;;;;;26.77;10.30;;;;;;;15.55;73.47;100912.00;4827783;29;20054;-77
2021/07/30 05:31:35;;;;;;;23.77;9.75;;;;;;;15.55;73.30;100909.34;4829840;29;20054;-77
2021/07/30 05:34:27;;;;;;;25.15;11.85;;;;;;;15.58;73.75;100906.34;4820153;29;20057;-77
2021/07/30 05:37:18;;;;;;;23.02;10.45;;;;;;;15.60;73.51;100902.53;4834394;29;20080;-77
2021/07/30 05:40:12;;;;;;;22.58;11.07;;;;;;;15.78;73.77;100906.72;4821668;29;20078;-78
2021/07/30 05:43:04;;;;;;;23.33;11.27;;;;;;;15.87;72.55;100912.75;4823884;29;20049;-76
2021/07/30 05:46:00;;;;;;;27.33;11.00;;;;;;;15.97;71.95;100908.84;4816171;29;20585;-78
2021/07/30 05:48:46;;;;;;;25.55;10.63;;;;;;;16.00;72.27;100905.84;4835718;29;20152;-77
2021/07/30 05:51:43;;;;;;;23.08;10.48;;;;;;;16.10;71.40;100902.13;4826359;29;20089;-77
2021/07/30 05:54:33;;;;;;;26.58;11.23;;;;;;;16.15;71.70;100894.44;4833690;29;20089;-77
2021/07/30 05:57:24;;;;;;;17.80;10.38;;;;;;;16.18;71.32;100902.03;4814233;29;20106;-78
2021/07/30 06:00:16;;;;;;;23.25;11.63;;;;;;;16.26;71.72;100901.94;4835293;29;20463;-78
2021/07/30 06:03:07;;;;;;;25.90;10.60;;;;;;;16.26;71.09;100896.66;4835614;29;20062;-78
2021/07/30 06:06:02;;;;;;;22.40;10.70;;;;;;;16.27;70.35;100895.66;4834260;29;20136;-78
2021/07/30 06:08:53;;;;;;;28.33;11.60;;;;;;;16.39;70.54;100894.19;4822804;29;20080;-77
2021/07/30 06:11:45;;;;;;;25.88;11.77;;;;;;;16.56;70.09;100889.56;4837197;29;20058;-78
2021/07/30 06:14:44;;;;;;;31.33;13.85;;;;;;;16.68;69.68;100897.84;4838244;29;20101;-77
2021/07/30 06:17:29;;;;;;;27.80;12.27;;;;;;;16.73;68.97;100900.75;4834260;29;20141;-76
2021/07/30 06:20:20;;;;;;;33.67;12.25;;;;;;;16.75;68.61;100893.44;4814383;29;20140;-77
2021/07/30 06:23:11;;;;;;;22.95;11.93;;;;;;;16.79;69.06;100893.88;4836905;29;20050;-78
2021/07/30 06:26:05;;;;;;;30.33;13.07;;;;;;;16.94;68.98;100892.06;4830562;29;20375;-76
2021/07/30 06:28:56;;;;;;;31.60;12.30;;;;;;;16.99;68.78;100889.69;4833654;29;20391;-77
2021/07/30 06:31:47;;;;;;;30.23;13.38;;;;;;;17.13;69.36;100893.31;4830746;29;20139;-77
2021/07/30 06:34:48;;;;;;;27.65;12.40;;;;;;;17.29;69.03;100889.59;4832391;29;20094;-77
2021/07/30 06:37:34;;;;;;;25.52;12.23;;;;;;;17.57;68.61;100881.69;4834349;29;20148;-76
2021/07/30 06:40:28;;;;;;;31.23;11.95;;;;;;;17.89;67.02;100878.69;4828949;29;20513;-76
2021/07/30 06:43:17;;;;;;;29.95;12.55;;;;;;;17.97;67.49;100883.84;4825020;29;20085;-76
2021/07/30 06:46:14;;;;;;;24.42;10.77;;;;;;;18.07;66.39;100884.34;4833514;29;20144;-76
2021/07/30 06:48:59;;;;;;;29.00;12.55;;;;;;;18.17;65.69;100878.69;4832985;29;20062;-76
2021/07/30 06:51:51;;;;;;;23.27;10.80;;;;;;;18.19;66.28;100876.66;4840744;29;20068;-76
2021/07/30 06:54:46;;;;;;;29.52;10.13;;;;;;;18.31;66.08;100876.94;4829854;29;20064;-77
2021/07/30 06:57:37;;;;;;;29.08;10.77;;;;;;;18.35;65.62;100879.00;4830382;29;20581;-77
2021/07/30 07:00:28;;;;;;;25.70;10.48;;;;;;;18.48;65.03;100874.75;4822330;29;20058;-77
2021/07/30 07:03:19;;;;;;;31.05;11.27;;;;;;;18.60;64.92;100872.34;4832195;29;20061;-77
2021/07/30 07:06:15;;;;;;;28.23;11.25;;;;;;;18.66;63.89;100874.22;4825926;29;20479;-74
2021/07/30 07:09:06;;;;;;;27.60;11.68;;;;;;;18.68;63.68;100873.00;4835303;29;20049;-76
2021/07/30 07:11:56;;;;;;;29.35;11.52;;;;;;;18.68;64.20;100867.69;4840045;29;20203;-77
2021/07/30 07:14:50;;;;;;;32.00;11.20;;;;;;;18.85;63.92;100868.19;4834862;29;20062;-76
2021/07/30 07:17:40;;;;;;;30.48;11.32;;;;;;;18.89;62.19;100860.63;4837921;29;20049;-76
2021/07/30 07:20:38;;;;;;;29.35;10.48;;;;;;;18.94;63.60;100859.00;4833029;29;20085;-77
2021/07/30 07:23:26;;;;;;;;;;;;;;;19.14;63.05;100848.41;4838380;29;20107;-77
2021/07/30 07:26:18;;;;;;;23.05;9.73;;;;;;;19.27;62.51;100852.13;4833710;29;19928;-77
2021/07/30 07:29:13;;;;;;;34.80;12.05;;;;;;;19.47;63.34;100842.31;4824263;29;20109;-77
2021/07/30 07:32:01;;;;;;;38.15;11.63;;;;;;;19.44;62.69;100855.19;4828754;29;20069;-76
2021/07/30 07:34:52;;;;;;;;;;;;;;;19.53;62.58;100848.66;4820799;29;20137;-77
2021/07/30 07:37:47;;;;;;;34.47;9.98;;;;;;;19.70;62.30;100851.75;4830490;29;20331;-77
2021/07/30 07:40:38;;;;;;;23.35;10.57;;;;;;;19.70;61.53;100852.56;4832703;29;20058;-77
2021/07/30 07:43:30;;;;;;;32.83;10.80;;;;;;;19.78;60.57;100850.72;4825946;29;20050;-77
2021/07/30 07:46:28;;;;;;;31.15;10.57;;;;;;;19.91;61.39;100845.38;4835849;29;20410;-77
2021/07/30 07:49:14;;;;;;;31.20;10.30;;;;;;;19.98;61.93;100848.84;4831917;29;20056;-77
2021/07/30 07:52:08;;;;;;;23.92;9.73;;;;;;;20.06;62.18;100835.31;4836028;29;20118;-76
2021/07/30 07:54:58;;;;;;;30.60;9.88;;;;;;;20.20;60.56;100836.09;4832762;29;20110;-77
2021/07/30 07:57:49;;;;;;;25.77;10.68;;;;;;;20.52;60.86;100838.84;4835299;29;20142;-77
2021/07/30 08:00:43;;;;;;;32.90;11.10;;;;;;;20.73;60.02;100829.75;4825607;29;20123;-77
2021/07/30 08:03:46;;;;;;;32.75;11.38;;;;;;;21.01;59.89;100823.22;4838536;29;20050;-77
2021/07/30 08:06:27;;;;;;;25.58;8.55;;;;;;;20.93;58.16;100830.47;4833280;29;20145;-77
2021/07/30 08:09:19;;;;;;;27.90;8.95;;;;;;;20.68;57.05;100818.91;4829190;29;20105;-77
2021/07/30 08:12:10;;;;;;;27.67;9.45;;;;;;;20.59;57.15;100830.84;4835615;29;20058;-77
2021/07/30 08:15:02;;;;;;;28.98;8.85;;;;;;;20.68;57.97;100833.06;4838007;29;20058;-79
2021/07/30 08:17:54;;;;;;;23.50;8.20;;;;;;;20.84;58.90;100823.75;4830346;29;20057;-76
2021/07/30 08:20:45;;;;;;;28.08;10.90;;;;;;;20.97;58.53;100824.69;4833507;29;20453;-76
2021/07/30 08:23:40;;;;;;;30.50;10.27;;;;;;;21.17;56.25;100821.88;4825807;29;20490;-76
2021/07/30 08:26:29;;;;;;;27.20;8.85;;;;;;;21.34;57.01;100814.97;4834469;29;20707;-77
2021/07/30 08:29:21;;;;;;;25.23;8.85;;;;;;;21.41;55.20;100813.09;4830422;29;20045;-77
2021/07/30 08:32:17;;;;;;;19.20;8.38;;;;;;;21.59;55.38;100808.88;4833557;29;20082;-77
2021/07/30 08:35:17;;;;;;;24.00;7.95;;;;;;;21.90;55.27;100808.75;4826807;29;20479;-77
2021/07/30 08:38:02;;;;;;;24.73;9.48;;;;;;;22.25;54.66;100810.03;4832115;29;20741;-77
2021/07/30 08:40:51;;;;;;;22.42;7.85;;;;;;;22.44;53.34;100810.81;4827786;29;20065;-77
2021/07/30 08:43:42;;;;;;;21.77;8.77;;;;;;;22.38;53.19;100807.19;4832921;29;20057;-76
2021/07/30 08:46:40;;;;;;;18.30;8.43;;;;;;;22.44;51.92;100800.97;4827085;29;20484;-77
2021/07/30 08:49:33;;;;;;;21.52;8.38;;;;;;;22.52;53.13;100799.81;4834035;29;20052;-77
2021/07/30 08:52:30;;;;;;;19.17;7.68;;;;;;;22.40;52.86;100802.44;4834590;29;20073;-77
2021/07/30 08:55:12;;;;;;;20.03;8.00;;;;;;;22.61;53.78;100800.31;4837670;29;20057;-77
2021/07/30 08:58:06;;;;;;;23.92;7.88;;;;;;;22.60;52.67;100796.00;4829797;29;20309;-77
2021/07/30 09:00:54;;;;;;;20.95;7.43;;;;;;;22.62;51.70;100799.28;4831765;29;20103;-77
2021/07/30 09:03:48;;;;;;;19.75;6.97;;;;;;;22.83;51.73;100789.94;4831935;29;20138;-76
2021/07/30 09:06:38;;;;;;;16.20;7.45;;;;;;;23.12;52.09;100793.63;4846212;29;20116;-77
2021/07/30 09:09:33;;;;;;;19.05;6.65;;;;;;;23.16;50.64;100792.13;4835777;29;20085;-77
2021/07/30 09:12:22;;;;;;;22.23;6.47;;;;;;;23.26;50.53;100794.22;4822912;29;20089;-77
2021/07/30 09:15:21;;;;;;;15.63;7.00;;;;;;;23.13;49.03;100781.06;4826006;29;20082;-77
2021/07/30 09:18:23;;;;;;;16.98;6.25;;;;;;;23.53;49.34;100777.72;4830618;29;20058;-77
2021/07/30 09:21:28;;;;;;;19.55;6.80;;;;;;;23.71;48.81;100776.78;4823308;29;20103;-77
2021/07/30 09:26:55;;;;;;;16.83;6.68;;;;;;;23.85;48.08;100762.09;4836160;29;20049;-77
2021/07/30 09:29:40;;;;;;;19.83;6.97;;;;;;;23.75;48.95;100772.56;4833443;29;20431;-77
2021/07/30 09:32:32;;;;;;;20.45;6.80;;;;;;;23.90;49.33;100766.78;4835361;29;20062;-76
2021/07/30 09:35:18;;;;;;;21.50;7.38;;;;;;;23.94;48.82;100760.69;4828149;29;20513;-77
2021/07/30 09:38:14;;;;;;;13.52;6.80;;;;;;;24.54;49.00;100761.31;4829784;29;20127;-76
2021/07/30 09:41:10;;;;;;;17.38;7.70;;;;;;;24.42;46.50;100753.28;4820207;29;20077;-77
2021/07/30 09:44:03;;;;;;;16.27;7.43;;;;;;;24.56;46.89;100753.84;4832857;29;20115;-78
2021/07/30 09:47:08;;;;;;;17.33;7.68;;;;;;;24.69;47.29;100742.00;4832781;29;20919;-77
2021/07/30 09:49:46;;;;;;;16.52;6.30;;;;;;;24.81;46.13;100746.22;4838290;29;20433;-77
2021/07/30 09:52:36;;;;;;;15.75;6.80;;;;;;;24.86;44.91;100742.84;4833093;29;20085;-77
2021/07/30 09:55:26;;;;;;;21.58;7.90;;;;;;;24.97;45.89;100735.75;4835208;29;20061;-77
2021/07/30 09:58:15;;;;;;;19.73;7.00;;;;;;;25.10;46.50;100729.25;4831950;29;20236;-77
2021/07/30 10:01:09;;;;;;;19.50;7.30;;;;;;;25.26;45.99;100723.88;4839962;29;20079;-77
2021/07/30 10:04:01;;;;;;;17.55;7.53;;;;;;;25.34;46.58;100719.97;4835995;29;20454;-77
2021/07/30 10:06:51;;;;;;;17.85;7.22;;;;;;;25.30;44.99;100718.84;4838952;29;20455;-77
2021/07/30 10:09:49;;;;;;;14.77;6.82;;;;;;;25.38;46.04;100718.41;4831612;29;20058;-77
2021/07/30 10:12:38;;;;;;;17.20;7.10;;;;;;;25.04;45.46;100721.13;4839057;29;20081;-77
2021/07/30 10:15:28;;;;;;;13.43;6.65;;;;;;;24.94;45.07;100706.75;4832010;29;20058;-77
2021/07/30 10:18:20;;;;;;;17.17;6.70;;;;;;;25.20;45.07;100714.09;4839444;29;20480;-79
2021/07/30 10:21:18;;;;;;;18.23;7.55;;;;;;;25.30;44.87;100713.47;4829011;29;20194;-77
2021/07/30 10:24:03;;;;;;;15.93;7.75;;;;;;;25.44;44.83;100705.88;4835312;29;20118;-77
2021/07/30 10:27:01;;;;;;;19.75;7.75;;;;;;;25.43;45.17;100704.25;4832138;29;20142;-77
2021/07/30 10:29:59;;;;;;;20.10;8.30;;;;;;;25.42;45.14;100699.94;4841425;29;20541;-77
2021/07/30 10:32:42;;;;;;;19.60;6.78;;;;;;;25.64;45.79;100705.34;4845037;29;20062;-77
2021/07/30 10:35:37;;;;;;;18.00;6.53;;;;;;;25.41;44.23;100701.81;4838210;29;20050;-77
2021/07/30 10:38:25;;;;;;;18.63;6.63;;;;;;;25.25;45.39;100700.78;4827551;29;20065;-76
2021/07/30 10:41:21;;;;;;;17.52;7.38;;;;;;;25.14;44.86;100692.81;4835596;29;20454;-77
2021/07/30 10:44:10;;;;;;;16.92;6.93;;;;;;;25.33;45.69;100688.03;4831150;29;20098;-77
2021/07/30 10:47:30;;;;;;;15.63;6.72;;;;;;;25.22;45.71;100676.31;4839693;29;20053;-77
2021/07/30 10:49:57;;;;;;;13.68;6.82;;;;;;;25.42;45.97;100671.25;4785353;29;20047;-76
2021/07/30 10:52:48;;;;;;;18.55;6.82;;;;;;;25.59;45.76;100671.16;4839762;29;20146;-78
2021/07/30 10:55:40;;;;;;;14.52;6.60;;;;;;;25.72;44.87;100664.63;4833234;29;20134;-77
2021/07/30 10:58:41;;;;;;;14.18;6.25;;;;;;;25.99;44.86;100664.66;4835694;29;20088;-76
2021/07/30 11:01:27;;;;;;;14.95;7.40;;;;;;;26.25;43.92;100659.53;4835692;29;20064;-77
2021/07/30 11:04:13;;;;;;;;;;;;;;;26.21;43.82;100653.84;4834363;29;20509;-76
2021/07/30 11:07:30;;;;;;;14.05;6.55;;;;;;;26.67;42.79;100648.06;4835528;29;19936;-77
2021/07/30 11:10:13;;;;;;;13.02;6.05;;;;;;;26.70;42.23;100641.34;4836578;29;20058;-77
2021/07/30 11:12:54;;;;;;;13.38;6.57;;;;;;;26.44;43.35;100650.03;4841784;29;20057;-76
2021/07/30 11:15:42;;;;;;;12.68;6.03;;;;;;;26.51;42.30;100635.56;4832024;29;20046;-78
2021/07/30 11:18:39;;;;;;;16.38;6.28;;;;;;;26.18;43.05;100648.97;4832517;29;20114;-77
2021/07/30 11:21:29;;;;;;;10.82;6.20;;;;;;;26.10;43.52;100633.31;4829949;29;20073;-77
2021/07/30 11:24:21;;;;;;;15.48;6.70;;;;;;;26.01;44.27;100632.16;4836142;29;20736;-76
2021/07/30 11:27:13;;;;;;;11.20;6.28;;;;;;;25.67;44.47;100631.50;4833976;29;20081;-76
2021/07/30 11:30:05;;;;;;;12.48;5.88;;;;;;;25.80;45.33;100631.13;4833659;29;20080;-76
2021/07/30 11:32:57;;;;;;;10.50;5.65;;;;;;;25.82;44.93;100627.09;4825163;29;20678;-76
2021/07/30 11:35:49;;;;;;;10.43;6.03;;;;;;;26.11;44.82;100620.69;4833703;29;20086;-77
2021/07/30 11:38:48;;;;;;;15.63;6.22;;;;;;;26.37;43.15;100622.53;4829000;29;20038;-77
2021/07/30 11:41:33;;;;;;;10.65;5.55;;;;;;;26.90;43.44;100614.59;4840823;29;20072;-77
2021/07/30 11:44:25;;;;;;;13.05;6.38;;;;;;;26.69;42.38;100616.34;4831184;29;20057;-76
2021/07/30 11:47:20;;;;;;;11.77;6.38;;;;;;;26.65;42.79;100617.94;4836899;29;20058;-77
2021/07/30 11:50:14;;;;;;;12.30;6.82;;;;;;;26.86;43.09;100618.88;4830463;29;20058;-77
2021/07/30 11:53:08;;;;;;;13.70;6.18;;;;;;;26.85;42.70;100611.06;4839202;29;20114;-78
2021/07/30 11:55:55;;;;;;;16.60;6.53;;;;;;;26.86;42.85;100604.63;4828729;29;20541;-77
2021/07/30 11:58:56;;;;;;;11.02;5.85;;;;;;;26.71;42.52;100611.50;4851853;29;20057;-77
2021/07/30 12:02:01;;;;;;;9.20;5.57;;;;;;;26.99;41.76;100606.81;4837018;29;20046;-79
2021/07/30 12:04:33;;;;;;;9.88;5.97;;;;;;;27.22;42.92;100587.56;4831685;29;20078;-77
2021/07/30 12:07:35;;;;;;;10.35;5.63;;;;;;;27.46;42.21;100591.72;4837181;29;20062;-77
2021/07/30 12:10:18;;;;;;;12.85;5.82;;;;;;;27.28;42.01;100584.94;4837265;29;20153;-79
2021/07/30 12:13:07;;;;;;;15.05;6.43;;;;;;;27.04;41.63;100582.63;4833688;29;20093;-77
2021/07/30 12:16:02;;;;;;;15.02;6.40;;;;;;;26.60;41.75;100582.94;4840237;29;20090;-78
2021/07/30 12:18:56;;;;;;;13.50;5.72;;;;;;;26.50;43.07;100578.28;4832862;29;20072;-77
2021/07/30 12:21:58;;;;;;;11.88;5.55;;;;;;;26.58;42.13;100583.19;4835810;29;20049;-76
2021/07/30 12:24:49;;;;;;;11.48;6.13;;;;;;;26.74;42.69;100576.03;4829883;29;20570;-77
2021/07/30 12:27:34;;;;;;;11.50;6.25;;;;;;;26.58;42.45;100571.56;4839620;29;20054;-77
2021/07/30 12:30:24;;;;;;;14.65;6.50;;;;;;;26.33;43.23;100564.97;4828353;29;20058;-78
2021/07/30 12:33:23;;;;;;;8.90;5.45;;;;;;;26.16;42.63;100566.97;4853635;29;20122;-77
2021/07/30 12:36:10;;;;;;;10.50;5.68;;;;;;;26.16;42.85;100564.28;4817089;29;20054;-76
2021/07/30 12:38:59;;;;;;;9.85;5.85;;;;;;;25.94;43.64;100559.00;4826879;29;20673;-77
2021/07/30 12:41:51;;;;;;;13.80;5.95;;;;;;;25.71;43.52;100573.53;4827638;29;20066;-77
2021/07/30 12:44:39;;;;;;;11.38;5.75;;;;;;;25.51;44.38;100561.50;4841020;29;20057;-78
2021/07/30 12:47:39;;;;;;;12.50;5.78;;;;;;;25.40;45.28;100568.66;4833437;29;20057;-77
2021/07/30 12:50:28;;;;;;;14.43;7.10;;;;;;;25.43;44.77;100553.91;4835273;29;20604;-77
2021/07/30 12:53:20;;;;;;;11.90;5.68;;;;;;;25.57;45.07;100554.31;4818345;29;20158;-78
2021/07/30 12:56:09;;;;;;;16.33;6.20;;;;;;;25.37;45.10;100569.13;4837831;29;20102;-77
2021/07/30 12:59:07;;;;;;;10.70;5.93;;;;;;;25.42;45.75;100552.28;4838177;29;20057;-77
2021/07/30 13:01:51;;;;;;;;;;;;;;;25.46;45.61;100542.66;4839433;29;20391;-77
2021/07/30 13:04:43;;;;;;;17.25;6.32;;;;;;;25.54;44.58;100541.38;4835442;29;19936;-77
2021/07/30 13:07:44;;;;;;;12.93;5.47;;;;;;;25.52;44.64;100538.13;4834193;29;20057;-78
2021/07/30 13:10:28;;;;;;;9.85;5.75;;;;;;;25.56;44.92;100537.41;4833504;29;20050;-77
2021/07/30 13:13:26;;;;;;;17.33;6.20;;;;;;;25.65;45.81;100518.94;4829256;29;20093;-76
2021/07/30 13:16:16;;;;;;;11.63;5.70;;;;;;;25.61;46.11;100517.84;4833506;29;20563;-76
2021/07/30 13:19:10;;;;;;;9.00;5.85;;;;;;;25.57;46.23;100530.94;4827003;29;20110;-76